Mount Pearl, Canada
Current Conditions -  °F | °C
As of 2:00 AM on Sunday 26 Oct 2014 (Local Time) from CYYT Reporting Station
Drizzle Drizzle  
Wind Chill: 40°   Ceiling: 200
Heat Index: 46°   Visibility: 0.5mi
Dew Point: 46°   Wind: 14mph
Humidity: 100%   Direction: 40°NE
Pressure: 29.38"   Gusts: NA
Location:  47.52°N, 52.82°W
Report Text: CYYT 260400Z 04012KT 1/2SM R11/5500FT/N DZ FG VV002 08/08 A2938 RMK FG8 SLP953
Loading
Personal Weather Stations






























Interactive Weather Map
Tropical Storm Tracking
New forecast layout! Learn more

10-Day Weather Forecast

Advertisements
Track Severe Weather on mobile